Latest Weather Observations for Temora

IDN60801

Issued at 9:22 pm EST Wednesday 5 August 2020 (issued every 10 minutes, with the page automatically refreshed every 10 minutes)

About weather observations | Map of weather stations | Latest weather observations for NSW | Other Formats
Station Details ID: 073151 Name: TEMORA AIRPORT Lat: -34.43 Lon: 147.51 Height: 280.5 m
Data from the previous 72 hours. | See also: Recent months at Temora
Date/Time
EST
Temp
°C
App
Temp
°C
Dew
Point
°C
Rel
Hum
%
Delta-T
°C
Wind Press
QNH
hPa
Press
MSL
hPa
Rain since
9am
mm
Dir  Spd
km/h
Gust
km/h
Spd
kts
Gust
kts
05/09:00pm 1.6 -0.9 1.3 98 0.1 SW 4 7 2 4 1018.6 1019.0 0.0
05/08:30pm 1.6 -1.9 1.5 99 0.0 WNW 9 11 5 6 1018.6 1019.0 0.0
05/08:00pm 1.9 -1.3 1.0 94 0.3 W 7 9 4 5 1018.7 1019.1 0.0
05/07:30pm 3.0 0.0 1.7 91 0.5 W 7 9 4 5 1018.3 1018.8 0.0
05/07:00pm 3.9 0.3 0.9 81 1.2 W 9 11 5 6 1018.1 1018.6 0.0
05/06:30pm 5.3 1.9 1.6 77 1.5 WSW 9 13 5 7 1017.7 1018.2 0.0
05/06:00pm 5.9 2.1 1.6 74 1.7 WSW 11 13 6 7 1017.3 1017.7 0.0
05/05:30pm 6.8 3.0 1.5 69 2.2 WSW 11 13 6 7 1017.2 1017.6 0.0
05/05:00pm 8.6 4.5 2.4 65 2.6 WSW 13 17 7 9 1017.0 1017.4 0.0
05/04:30pm 9.9 5.5 2.5 60 3.2 W 15 20 8 11 1016.7 1017.1 0.0
05/04:00pm 9.5 4.0 1.7 58 3.3 WSW 20 28 11 15 1016.6 1017.0 0.0
05/03:30pm 10.7 5.9 2.8 58 3.5 WSW 17 24 9 13 1016.4 1016.8 0.0
05/03:00pm 10.8 6.2 3.6 61 3.2 WSW 17 28 9 15 1016.4 1016.8 0.0
05/02:30pm 10.8 5.9 4.0 63 3.1 W 19 32 10 17 1016.6 1017.0 0.0
05/02:00pm 9.2 3.9 3.0 65 2.7 WSW 20 32 11 17 1016.7 1017.1 0.0
05/01:30pm 9.7 4.6 3.9 67 2.6 WSW 20 28 11 15 1016.9 1017.3 0.0
05/01:00pm 9.5 3.9 3.5 66 2.6 WSW 22 30 12 16 1016.9 1017.3 0.0
05/12:30pm 8.6 3.4 3.4 70 2.3 WSW 20 28 11 15 1017.3 1017.7 0.0
05/12:00pm 9.4 4.6 4.4 71 2.2 WSW 19 28 10 15 1017.4 1017.8 0.0
05/11:30am 8.5 3.3 3.6 71 2.1 WSW 20 28 11 15 1017.6 1018.0 0.0
05/11:00am 8.0 3.5 4.0 76 1.8 WSW 17 24 9 13 1017.9 1018.4 0.0
05/10:30am 6.7 1.6 3.3 79 1.5 WSW 19 26 10 14 1018.1 1018.6 0.0
05/10:00am 5.8 0.6 2.6 80 1.3 W 19 26 10 14 1018.0 1018.5 0.0
05/09:30am 4.9 0.2 3.1 88 0.8 WSW 17 22 9 12 1017.8 1018.3 0.0
05/09:00am 3.7 0.6 3.4 98 0.1 W 9 11 5 6 1017.6 1018.0 0.2
05/08:30am 1.5 -1.6 1.5 100 0.0 WNW 7 9 4 5 1017.4 1017.8 0.2
05/08:00am 0.3 -2.8 0.3 100 0.0 WSW 6 7 3 4 1017.3 1017.7 0.0
05/07:30am -1.2 -5.1 -1.2 100 0.0 WSW 9 11 5 6 1017.0 1017.4 0.0
05/07:00am -1.6 -5.1 -1.7 99 0.0 WNW 7 11 4 6 1016.9 1017.3 0.0
05/06:30am -1.2 -5.1 -1.2 100 0.0 WSW 9 13 5 7 1016.8 1017.2 0.0
05/06:00am -1.1 -5.7 -1.1 100 0.0 W 13 15 7 8 1016.2 1016.6 0.0
05/05:30am -1.3 -5.2 -1.3 100 0.0 W 9 11 5 6 1016.4 1016.8 0.0
05/05:00am -1.7 -5.6 -1.8 99 0.0 WNW 9 11 5 6 1016.0 1016.4 0.0
05/04:30am -1.2 -5.1 -1.3 99 0.0 W 9 9 5 5 1015.9 1016.3 0.0
05/04:00am -0.6 -3.8 -0.7 99 0.0 NW 6 7 3 4 1015.8 1016.2 0.0
05/03:30am -1.1 -4.7 -1.8 95 0.2 NW 7 9 4 5 1015.8 1016.2 0.0
05/03:00am 0.0 -3.4 -0.6 96 0.2 WSW 7 11 4 6 1016.1 1016.5 0.0
05/02:30am 0.6 -2.6 -0.5 92 0.4 WSW 6 9 3 5 1016.1 1016.5 0.0
05/02:00am 0.5 -3.3 -1.1 89 0.6 WNW 9 11 5 6 1016.4 1016.8 0.0
05/01:30am 0.7 -3.5 -1.1 88 0.6 W 11 13 6 7 1016.5 1016.9 0.0
05/01:00am 0.8 -2.7 -1.0 88 0.6 W 7 9 4 5 1016.7 1017.1 0.0
05/12:30am 1.1 -2.4 -1.3 84 0.9 WSW 7 9 4 5 1016.8 1017.2 0.0
05/12:00am 0.8 -3.1 -1.3 86 0.7 WSW 9 11 5 6 1016.6 1017.0 0.0
 
Date/Time
EST
Temp
°C
App
Temp
°C
Dew
Point
°C
Rel
Hum
%
Delta-T
°C
Wind Press
QNH
hPa
Press
MSL
hPa
Rain since
9am
mm
Dir  Spd
km/h
Gust
km/h
Spd
kts
Gust
kts
04/11:30pm 0.5 -2.6 0.1 97 0.1 W 6 9 3 5 1016.5 1016.9 0.0
04/11:00pm 0.4 -1.5 0.3 99 0.0 CALM 0 0 0 0 1016.6 1017.0 0.0
04/10:30pm 0.0 -2.0 -0.1 99 0.0 CALM 0 0 0 0 1016.7 1017.1 0.0
04/10:00pm -0.8 -2.9 -0.9 99 0.0 CALM 0 0 0 0 1016.6 1017.0 0.0
04/09:30pm -0.5 -2.9 -0.6 99 0.0 W 2 6 1 3 1016.7 1017.1 0.0
04/09:00pm 0.2 -2.5 0.1 99 0.0 W 4 6 2 3 1016.8 1017.2 0.0
04/08:30pm 0.8 -1.2 0.1 95 0.3 CALM 0 0 0 0 1016.6 1017.0 0.0
04/08:00pm 0.9 -2.3 -0.2 92 0.4 W 6 6 3 3 1016.5 1016.9 0.0
04/07:30pm 1.7 -1.5 -0.5 85 0.8 WNW 6 7 3 4 1016.5 1016.9 0.0
04/07:00pm 2.4 -0.8 -0.7 80 1.1 NW 6 6 3 3 1016.3 1016.7 0.0
04/06:30pm 3.8 0.6 -0.8 72 1.7 W 6 7 3 4 1016.1 1016.5 0.0
04/06:00pm 4.5 1.0 -1.1 67 2.1 W 7 9 4 5 1016.0 1016.4 0.0
04/05:30pm 6.1 1.4 -1.8 57 3.0 WSW 13 17 7 9 1015.8 1016.2 0.0
04/05:00pm 7.9 3.2 -1.9 50 3.7 SW 13 22 7 12 1015.4 1015.8 0.0
04/04:30pm 9.0 2.9 -2.3 45 4.3 WSW 20 30 11 16 1015.3 1015.7 0.0
04/04:00pm 9.3 3.0 -1.1 48 4.1 WSW 22 33 12 18 1014.9 1015.3 0.0
04/03:30pm 10.2 4.7 0.3 50 4.1 WSW 19 28 10 15 1014.6 1015.0 0.0
04/03:00pm 10.3 4.6 0.3 50 4.1 WSW 20 28 11 15 1014.4 1014.8 0.0
04/02:30pm 10.3 4.2 0.1 49 4.2 WSW 22 35 12 19 1014.3 1014.7 0.0
04/02:00pm 10.9 4.9 3.2 59 3.4 WSW 24 37 13 20 1014.4 1014.8 0.0
04/01:30pm 10.6 4.3 1.4 53 3.9 WSW 24 39 13 21 1014.4 1014.8 0.0
04/01:00pm 10.6 5.0 3.4 61 3.2 WSW 22 32 12 17 1014.5 1014.9 0.0
04/12:30pm 10.7 5.5 3.7 62 3.1 WSW 20 35 11 19 1014.6 1015.0 0.0
04/12:00pm 10.4 4.8 5.4 71 2.3 WSW 24 32 13 17 1015.1 1015.5 0.0
04/11:30am 9.6 3.9 4.8 72 2.2 WSW 24 35 13 19 1015.4 1015.8 0.0
04/11:00am 9.4 5.2 5.6 77 1.8 WSW 17 22 9 12 1015.4 1015.8 0.0
04/10:30am 9.3 4.6 5.1 75 1.9 SW 19 26 10 14 1015.4 1015.8 0.0
04/10:00am 9.0 4.2 4.6 74 2.0 SW 19 26 10 14 1015.5 1015.9 0.0
04/09:30am 8.2 3.9 5.3 82 1.3 SW 17 24 9 13 1015.4 1015.8 0.0
04/09:00am 7.9 3.9 6.7 92 0.6 SW 17 22 9 12 1015.2 1015.6 0.0
04/08:30am 6.9 3.0 6.9 100 0.0 WSW 17 22 9 12 1014.7 1015.2 0.0
04/08:00am 5.1 2.9 5.1 100 0.0 NW 6 7 3 4 1014.5 1014.9 0.0
04/07:30am 4.3 1.7 4.3 100 0.0 NW 7 9 4 5 1014.3 1014.7 0.0
04/07:00am 4.5 2.0 4.5 100 0.0 N 7 9 4 5 1013.9 1014.3 0.0
04/06:30am 4.9 2.4 4.9 100 0.0 NNW 7 7 4 4 1013.7 1014.1 0.0
04/06:00am 5.1 2.3 5.1 100 0.0 NNW 9 9 5 5 1013.4 1013.8 0.0
04/05:30am 5.5 2.8 5.5 100 0.0 NNW 9 9 5 5 1013.5 1013.9 0.0
04/05:00am 5.7 3.0 5.7 100 0.0 WNW 9 11 5 6 1013.7 1014.1 0.0
04/04:30am 6.1 3.9 6.1 100 0.0 NNE 7 9 4 5 1013.3 1013.7 0.0
04/04:00am 5.0 2.2 5.0 100 0.0 SW 9 15 5 8 1013.7 1014.1 0.0
04/03:30am 6.5 4.0 6.4 99 0.0 NNE 9 9 5 5 1013.5 1013.9 0.0
04/03:00am 6.6 4.5 6.5 99 0.0 NNE 7 9 4 5 1013.7 1014.1 0.0
04/02:30am 7.2 4.4 7.1 99 0.0 NNE 11 11 6 6 1014.0 1014.4 0.0
04/02:00am 7.1 4.3 7.0 99 0.0 NNE 11 13 6 7 1014.4 1014.8 0.0
04/01:30am 6.6 4.1 6.5 99 0.0 NE 9 11 5 6 1014.9 1015.3 0.0
04/01:00am 6.2 3.5 5.8 97 0.2 NE 9 11 5 6 1015.0 1015.4 0.0
04/12:30am 7.0 4.1 6.6 97 0.2 NNE 11 15 6 8 1015.2 1015.6 0.0
04/12:00am 8.2 5.4 7.1 93 0.5 NNE 11 15 6 8 1015.5 1015.9 0.0
 
Date/Time
EST
Temp
°C
App
Temp
°C
Dew
Point
°C
Rel
Hum
%
Delta-T
°C
Wind Press
QNH
hPa
Press
MSL
hPa
Rain since
9am
mm
Dir  Spd
km/h
Gust
km/h
Spd
kts
Gust
kts
03/11:30pm 7.6 4.6 6.2 91 0.6 NNE 11 11 6 6 1015.6 1016.0 0.0
03/11:00pm 8.6 6.0 7.8 95 0.4 NE 11 11 6 6 1015.8 1016.2 0.0
03/10:30pm 7.4 5.5 7.4 100 0.0 NE 7 9 4 5 1016.0 1016.4 0.0
03/10:00pm 6.7 4.6 6.7 100 0.0 NE 7 9 4 5 1016.2 1016.6 0.0
03/09:30pm 7.4 5.5 7.4 100 0.0 NE 7 9 4 5 1016.2 1016.6 0.0
03/09:00pm 7.4 6.8 7.4 100 0.0 CALM 0 0 0 0 1016.5 1016.9 0.0
03/08:30pm 7.4 5.7 7.4 100 0.0 NE 6 6 3 3 1016.5 1016.9 0.0
03/08:00pm 8.3 6.8 8.3 100 0.0 NE 6 7 3 4 1016.6 1017.0 0.0
03/07:30pm 9.1 7.7 8.8 98 0.1 NE 6 7 3 4 1016.6 1017.0 0.0
03/07:00pm 9.3 8.3 8.8 97 0.2 NE 4 6 2 3 1016.6 1017.0 0.0
03/06:30pm 9.9 8.5 8.8 93 0.5 NE 6 7 3 4 1016.6 1017.0 0.0
03/06:00pm 10.9 9.2 10.0 94 0.5 NE 9 13 5 7 1016.7 1017.1 0.0
03/05:30pm 11.7 9.3 10.1 90 0.8 NNE 13 15 7 8 1016.7 1017.1 0.0
03/05:00pm 12.6 10.6 10.1 85 1.3 NNE 11 13 6 7 1016.7 1017.1 0.0
03/04:30pm 13.3 11.5 10.7 84 1.4 NNE 11 13 6 7 1016.9 1017.3 0.0
03/04:00pm 14.0 11.1 9.8 76 2.2 N 15 17 8 9 1016.8 1017.2 0.0
03/03:30pm 14.6 11.7 9.6 72 2.6 N 15 19 8 10 1017.0 1017.4 0.0
03/03:00pm 15.0 11.7 9.6 70 2.8 N 17 22 9 12 1017.1 1017.5 0.0
03/02:30pm 14.9 12.1 10.1 73 2.5 N 15 19 8 10 1017.4 1017.8 0.0
03/02:00pm 14.7 11.7 9.1 69 2.9 N 15 20 8 11 1017.6 1018.0 0.0
03/01:30pm 14.4 10.7 7.9 65 3.3 N 17 22 9 12 1018.1 1018.6 0.0
03/01:00pm 15.2 11.4 7.7 61 3.8 N 17 20 9 11 1018.6 1019.0 0.0
03/12:30pm 14.8 12.3 8.1 64 3.4 N 11 19 6 10 1019.4 1019.8 0.0
03/12:00pm 13.4 10.9 8.0 70 2.7 NNE 11 17 6 9 1019.8 1020.2 0.0
03/11:30am 12.7 10.2 8.2 74 2.3 NNE 11 15 6 8 1020.1 1020.5 0.0
03/11:00am 11.7 10.1 8.9 83 1.4 N 7 11 4 6 1020.7 1021.2 0.0
03/10:30am 10.0 7.8 9.2 95 0.4 NNE 11 13 6 7 1021.0 1021.5 0.0
03/10:00am 9.0 7.1 9.0 100 0.0 NNE 9 13 5 7 1021.4 1021.9 0.0
03/09:30am 6.9 4.9 6.9 100 0.0 NNE 7 9 4 5 1021.7 1022.2 0.0
03/09:00am 4.8 3.6 4.8 100 0.0 CALM 0 0 0 0 1021.7 1022.2 0.0
03/08:30am 1.0 -0.8 1.0 100 0.0 CALM 0 0 0 0 1021.6 1022.1 0.0
03/08:00am 0.1 -1.9 0.1 100 0.0 CALM 0 0 0 0 1021.5 1022.0 0.0
03/07:30am -0.6 -3.8 -0.6 100 0.0 S 6 7 3 4 1021.4 1021.9 0.0
03/07:00am -0.9 -4.2 -0.9 100 0.0 S 6 6 3 3 1021.3 1021.8 0.0
03/06:30am -0.5 -3.7 -0.5 100 0.0 S 6 6 3 3 1021.2 1021.7 0.0
03/06:00am -0.4 -2.4 -0.4 100 0.0 CALM 0 0 0 0 1021.3 1021.8 0.0
03/05:30am -0.5 -3.9 -0.5 100 0.0 S 7 9 4 5 1021.2 1021.7 0.0
03/05:00am -0.3 -3.1 -0.3 100 0.0 S 4 6 2 3 1021.1 1021.6 0.0
03/04:30am -0.4 -3.8 -0.4 100 0.0 S 7 7 4 4 1021.1 1021.6 0.0
03/04:00am -0.4 -3.8 -0.4 100 0.0 S 7 7 4 4 1021.2 1021.7 0.0
03/03:30am -0.1 -3.4 -0.1 100 0.0 S 7 7 4 4 1021.2 1021.7 0.0
03/03:00am -0.2 -3.4 -0.2 100 0.0 S 6 7 3 4 1021.5 1022.0 0.0
03/02:30am 0.0 -3.3 0.0 100 0.0 S 7 9 4 5 1021.6 1022.1 0.0
03/02:00am -0.1 -3.2 -0.1 100 0.0 S 6 6 3 3 1022.0 1022.5 0.0
03/01:30am 0.5 -2.7 0.5 100 0.0 S 7 7 4 4 1022.4 1022.8 0.0
03/01:00am 0.6 -1.3 0.6 100 0.0 CALM 0 0 0 0 1022.7 1023.1 0.0
03/12:30am 1.0 -2.5 1.0 100 0.0 S 9 11 5 6 1023.0 1023.4 0.0
03/12:00am 0.8 -2.2 0.8 100 0.0 SW 6 7 3 4 1023.2 1023.6 0.0
 
Date/Time
EST
Temp
°C
App
Temp
°C
Dew
Point
°C
Rel
Hum
%
Delta-T
°C
Wind Press
QNH
hPa
Press
MSL
hPa
Rain since
9am
mm
Dir  Spd
km/h
Gust
km/h
Spd
kts
Gust
kts
02/11:30pm 1.2 -2.3 1.2 100 0.0 S 9 9 5 5 1023.4 1023.8 0.0
02/11:00pm 1.8 -1.0 1.8 100 0.0 S 6 7 3 4 1023.7 1024.2 0.0
02/10:30pm 2.6 0.3 2.6 100 0.0 S 4 6 2 3 1023.9 1024.4 0.0
02/10:00pm 2.4 -0.5 2.4 100 0.0 S 7 7 4 4 1024.0 1024.5 0.0
02/09:30pm 2.8 0.1 2.8 100 0.0 S 6 7 3 4 1024.2 1024.7 0.0

Other formats

Comma delimited format used in spreadsheet applications
http://www.bom.gov.au/fwo/IDN60801/IDN60801.95722.axf

JavaScript Object Notation format (JSON) in row-major order
http://www.bom.gov.au/fwo/IDN60801/IDN60801.95722.json

Data quality

Most of these data are generated automatically and are frequently updated. Quality checks on data are not normally performed. It is possible for incorrect values to appear. Refer to information at About Latest Weather Observations and please check the disclaimer before using these data.